createdAt,value
2023-04-20T00:00:49.876Z,4.13
2023-04-20T00:03:21.211Z,3.67
2023-04-20T00:05:50.890Z,3.70
2023-04-20T00:08:18.849Z,3.83
2023-04-20T00:10:46.861Z,4.20
2023-04-20T00:13:14.733Z,3.90
2023-04-20T00:15:42.586Z,3.90
2023-04-20T00:18:10.548Z,3.77
2023-04-20T00:20:38.592Z,3.80
2023-04-20T00:23:08.292Z,3.83
2023-04-20T00:25:36.278Z,3.97
2023-04-20T00:28:04.173Z,3.80
2023-04-20T00:30:32.073Z,4.10
2023-04-20T00:32:59.986Z,3.43
2023-04-20T00:35:27.883Z,4.67
2023-04-20T00:37:55.778Z,3.97
2023-04-20T00:40:24.991Z,3.60
2023-04-20T00:42:52.818Z,3.73
2023-04-20T00:45:22.099Z,3.80
2023-04-20T00:47:50.132Z,4.20
2023-04-20T00:50:18.440Z,3.63
2023-04-20T00:52:46.571Z,3.40
2023-04-20T00:55:14.805Z,3.20
2023-04-20T00:57:44.982Z,3.73
2023-04-20T01:00:17.618Z,4.10
2023-04-20T01:02:45.880Z,3.47
2023-04-20T01:05:14.118Z,3.43
2023-04-20T01:07:42.365Z,3.77
2023-04-20T01:10:11.141Z,3.83
2023-04-20T01:12:39.268Z,3.83
2023-04-20T01:15:09.880Z,4.23
2023-04-20T01:17:39.709Z,4.00
2023-04-20T01:20:11.499Z,3.67
2023-04-20T01:22:45.534Z,3.53
2023-04-20T01:25:13.759Z,3.70
2023-04-20T01:27:41.934Z,3.70
2023-04-20T01:30:10.826Z,3.30
2023-04-20T01:32:39.050Z,3.27
2023-04-20T01:35:08.357Z,3.40
2023-04-20T01:37:36.762Z,3.37
2023-04-20T01:40:07.200Z,4.17
2023-04-20T01:42:35.641Z,3.43
2023-04-20T01:45:03.915Z,3.30
2023-04-20T01:47:32.654Z,3.20
2023-04-20T01:50:00.996Z,3.50
2023-04-20T01:52:29.181Z,3.40
2023-04-20T01:54:57.339Z,3.57
2023-04-20T01:57:26.853Z,3.27
2023-04-20T01:59:55.113Z,3.60
2023-04-20T02:02:23.381Z,3.57
2023-04-20T02:04:53.267Z,3.57
2023-04-20T02:07:21.576Z,3.50
2023-04-20T02:09:49.714Z,3.20
2023-04-20T02:12:17.947Z,3.33
2023-04-20T02:14:47.507Z,3.53
2023-04-20T02:17:15.755Z,3.93
2023-04-20T02:19:43.995Z,3.33
2023-04-20T02:22:12.174Z,3.80
2023-04-20T02:24:41.385Z,3.53
2023-04-20T02:27:09.539Z,3.53
2023-04-20T02:29:37.721Z,4.20
2023-04-20T02:32:07.840Z,3.33
2023-04-20T02:34:36.138Z,3.67
2023-04-20T02:37:04.378Z,3.73
2023-04-20T02:39:32.536Z,3.73
2023-04-20T02:42:01.491Z,3.73
2023-04-20T02:44:29.658Z,3.57
2023-04-20T02:46:57.858Z,3.73
2023-04-20T02:49:27.451Z,3.30
2023-04-20T02:51:55.600Z,3.27
2023-04-20T02:54:23.746Z,3.20
2023-04-20T02:56:51.888Z,3.40
2023-04-20T02:59:20.039Z,3.67
2023-04-20T03:01:48.237Z,3.50
2023-04-20T03:04:16.557Z,3.13
2023-04-20T03:06:46.204Z,3.47
2023-04-20T03:09:14.752Z,3.23
2023-04-20T03:11:42.943Z,3.30
2023-04-20T03:14:11.179Z,3.10
2023-04-20T03:16:39.410Z,3.33
2023-04-20T03:19:07.668Z,2.80
2023-04-20T03:21:36.237Z,3.07
2023-04-20T03:24:07.253Z,3.17
2023-04-20T03:26:36.344Z,3.30
2023-04-20T03:29:04.504Z,3.30
2023-04-20T03:31:32.680Z,2.97
2023-04-20T03:34:01.156Z,2.93
2023-04-20T03:36:29.438Z,3.13
2023-04-20T03:38:57.596Z,3.20
2023-04-20T03:41:27.204Z,3.03
2023-04-20T03:43:55.862Z,3.40
2023-04-20T03:46:24.219Z,2.87
2023-04-20T03:48:52.399Z,3.23
2023-04-20T03:51:20.558Z,3.20
2023-04-20T03:53:48.699Z,3.10
2023-04-20T03:56:16.879Z,2.97
2023-04-20T03:58:46.532Z,3.30
2023-04-20T04:01:15.720Z,3.23
2023-04-20T04:03:44.027Z,2.80
2023-04-20T04:06:12.590Z,3.07
2023-04-20T04:08:40.770Z,3.33
2023-04-20T04:11:08.923Z,3.10
2023-04-20T04:13:37.075Z,3.03
2023-04-20T04:16:07.227Z,3.10
2023-04-20T04:18:35.405Z,2.80
2023-04-20T04:21:03.616Z,3.00
2023-04-20T04:23:31.854Z,2.80
2023-04-20T04:26:01.780Z,3.07
2023-04-20T04:28:29.942Z,2.83
2023-04-20T04:30:58.106Z,2.87
2023-04-20T04:33:27.791Z,2.83
2023-04-20T04:35:56.051Z,3.00
2023-04-20T04:38:24.254Z,2.50
2023-04-20T04:40:52.484Z,2.90
2023-04-20T04:43:20.693Z,2.77
2023-04-20T04:45:49.831Z,2.90
2023-04-20T04:48:18.970Z,3.27
2023-04-20T04:50:48.477Z,2.80
2023-04-20T04:53:16.672Z,2.83
2023-04-20T04:55:44.822Z,3.93
2023-04-20T04:58:12.985Z,3.60
2023-04-20T05:00:41.223Z,3.33
2023-04-20T05:03:09.543Z,3.50
2023-04-20T05:05:38.098Z,4.07
2023-04-20T05:08:07.653Z,3.03
2023-04-20T05:10:35.839Z,3.53
2023-04-20T05:13:04.054Z,3.57
2023-04-20T05:15:32.232Z,4.30
2023-04-20T05:18:02.159Z,4.10
2023-04-20T05:20:30.578Z,3.57
2023-04-20T05:22:58.802Z,4.57
2023-04-20T05:25:28.450Z,4.13
2023-04-20T05:27:56.601Z,3.67
2023-04-20T05:30:24.880Z,4.23
2023-04-20T05:32:53.110Z,4.60
2023-04-20T05:35:22.375Z,4.10
2023-04-20T05:37:50.671Z,4.00
2023-04-20T05:40:18.962Z,4.33
2023-04-20T05:42:48.534Z,4.60
2023-04-20T05:45:16.708Z,4.40
2023-04-20T05:47:53.504Z,4.30
2023-04-20T05:50:21.809Z,4.70
2023-04-20T05:52:50.085Z,4.40
2023-04-20T05:55:20.597Z,4.07
2023-04-20T05:57:52.655Z,3.80
2023-04-20T06:00:23.078Z,4.07
2023-04-20T06:02:54.414Z,4.37
2023-04-20T06:05:22.878Z,4.13
2023-04-20T06:07:51.155Z,4.07
2023-04-20T06:10:19.349Z,4.13
2023-04-20T06:12:47.796Z,4.93
2023-04-20T06:15:17.293Z,3.97
2023-04-20T06:17:45.489Z,4.40
2023-04-20T06:20:13.744Z,4.07
2023-04-20T06:22:45.234Z,4.20
2023-04-20T06:25:13.565Z,4.27
2023-04-20T06:27:41.752Z,4.90
2023-04-20T06:30:10.657Z,4.83
2023-04-20T06:32:40.266Z,4.90
2023-04-20T06:35:09.144Z,4.00
2023-04-20T06:37:37.492Z,4.37
2023-04-20T06:40:08.052Z,4.47
2023-04-20T06:42:36.613Z,4.60
2023-04-20T06:45:04.979Z,4.87
2023-04-20T06:47:33.876Z,5.03
2023-04-20T06:50:04.596Z,4.83
2023-04-20T06:52:32.821Z,4.93
2023-04-20T06:55:01.556Z,5.03
2023-04-20T06:57:29.739Z,4.53
2023-04-20T06:59:58.857Z,9.10
2023-04-20T07:02:27.309Z,5.30
2023-04-20T07:04:55.652Z,4.90
2023-04-20T07:07:25.184Z,5.47
2023-04-20T07:09:53.377Z,4.70
2023-04-20T07:12:21.544Z,5.03
2023-04-20T07:14:49.687Z,5.30
2023-04-20T07:17:17.872Z,5.00
2023-04-20T07:19:46.043Z,5.23
2023-04-20T07:22:14.244Z,5.13
2023-04-20T07:24:43.716Z,5.17
2023-04-20T07:27:11.858Z,4.87
2023-04-20T07:29:40.060Z,5.40
2023-04-20T07:32:08.268Z,4.93
2023-04-20T07:34:36.468Z,4.77
2023-04-20T07:37:04.656Z,5.73
2023-04-20T07:39:32.856Z,5.43
2023-04-20T07:42:04.541Z,5.43
2023-04-20T07:44:32.745Z,5.67
2023-04-20T07:47:02.512Z,6.10
2023-04-20T07:49:31.216Z,4.90
2023-04-20T07:52:12.805Z,5.80
2023-04-20T07:54:43.672Z,5.97
2023-04-20T07:57:13.204Z,5.57
2023-04-20T07:59:46.305Z,4.70
2023-04-20T08:04:44.420Z,5.87
2023-04-20T08:07:12.861Z,5.60
2023-04-20T08:09:41.037Z,5.97
2023-04-20T08:12:09.574Z,5.67
2023-04-20T08:14:40.421Z,5.67
2023-04-20T08:17:08.663Z,5.87
2023-04-20T08:19:37.118Z,5.90
2023-04-20T08:22:05.983Z,6.23
2023-04-20T08:24:34.172Z,6.07
2023-04-20T08:27:02.402Z,6.30
2023-04-20T08:29:30.924Z,6.37
2023-04-20T08:32:00.536Z,6.47
2023-04-20T08:34:28.884Z,6.23
2023-04-20T08:36:57.109Z,6.73
2023-04-20T08:39:25.615Z,6.90
2023-04-20T08:41:55.432Z,7.10
2023-04-20T08:44:23.682Z,7.23
2023-04-20T08:46:52.185Z,6.97
2023-04-20T08:49:22.017Z,7.37
2023-04-20T08:51:51.440Z,7.83
2023-04-20T08:54:19.731Z,8.37
2023-04-20T08:56:49.409Z,9.37
2023-04-20T08:59:17.858Z,9.37
2023-04-20T09:01:46.509Z,9.50
2023-04-20T09:04:18.628Z,10.07
2023-04-20T09:06:50.123Z,10.10
2023-04-20T09:09:18.423Z,10.23
2023-04-20T09:11:46.912Z,9.97
2023-04-20T09:14:16.627Z,10.40
2023-04-20T09:16:52.077Z,9.20
2023-04-20T09:19:24.470Z,8.73
2023-04-20T09:21:55.423Z,8.83
2023-04-20T09:24:25.177Z,8.70
2023-04-20T09:26:53.390Z,9.40
2023-04-20T09:29:22.266Z,9.57
2023-04-20T09:31:51.231Z,9.10
2023-04-20T09:34:19.770Z,8.07
2023-04-20T09:36:50.183Z,11.13
2023-04-20T09:39:20.537Z,11.57
2023-04-20T09:41:48.905Z,11.70
2023-04-20T09:44:17.798Z,12.70
2023-04-20T09:46:46.621Z,11.50
2023-04-20T09:49:15.426Z,12.47
2023-04-20T09:51:45.853Z,11.43
2023-04-20T09:54:15.698Z,11.40
2023-04-20T09:56:45.784Z,9.40
2023-04-20T09:59:14.223Z,8.70
2023-04-20T10:01:42.526Z,8.53
2023-04-20T10:04:12.346Z,8.10
2023-04-20T10:06:40.608Z,8.43
2023-04-20T10:09:09.470Z,6.73
2023-04-20T10:11:51.821Z,7.27
2023-04-20T10:14:23.967Z,6.27
2023-04-20T10:17:00.991Z,6.77
2023-04-20T10:19:38.099Z,7.80
2023-04-20T10:22:06.326Z,6.77
2023-04-20T10:24:34.580Z,8.00
2023-04-20T10:27:04.175Z,6.40
2023-04-20T10:29:36.373Z,4.60
2023-04-20T10:32:04.723Z,4.90
2023-04-20T10:34:33.102Z,4.40
2023-04-20T10:37:12.080Z,3.60
2023-04-20T10:39:45.421Z,3.00
2023-04-20T10:42:15.041Z,2.83
2023-04-20T10:44:52.694Z,2.20
2023-04-20T10:47:30.277Z,2.60
2023-04-20T10:50:07.775Z,2.73
2023-04-20T10:52:36.629Z,4.00
2023-04-20T10:55:05.074Z,2.73
2023-04-20T10:57:33.790Z,2.53
2023-04-20T11:00:16.699Z,2.83
2023-04-20T11:02:49.534Z,2.90
2023-04-20T11:05:18.797Z,3.13
2023-04-20T11:07:53.745Z,3.47
2023-04-20T11:10:22.257Z,3.30
2023-04-20T11:12:51.090Z,3.57
2023-04-20T11:15:20.694Z,3.60
2023-04-20T11:17:50.022Z,3.20
2023-04-20T11:20:18.530Z,3.70
2023-04-20T11:22:46.830Z,3.40
2023-04-20T11:25:15.030Z,3.40
2023-04-20T11:27:43.275Z,3.53
2023-04-20T11:30:11.695Z,3.43
2023-04-20T11:32:41.560Z,3.50
2023-04-20T11:35:10.821Z,4.20
2023-04-20T11:37:47.984Z,3.93
2023-04-20T11:40:16.520Z,3.70
2023-04-20T11:42:46.194Z,3.27
2023-04-20T11:45:14.421Z,3.43
2023-04-20T11:47:45.559Z,3.27
2023-04-20T11:50:14.296Z,3.73
2023-04-20T11:52:42.488Z,3.10
2023-04-20T11:55:11.303Z,3.03
2023-04-20T11:57:39.501Z,3.20
2023-04-20T12:00:08.849Z,3.10
2023-04-20T12:02:37.196Z,3.07
2023-04-20T12:05:08.550Z,3.00
2023-04-20T12:07:36.908Z,2.73
2023-04-20T12:10:05.219Z,2.77
2023-04-20T12:12:33.949Z,2.77
2023-04-20T12:15:02.339Z,2.90
2023-04-20T12:17:30.591Z,2.67
2023-04-20T12:19:58.863Z,2.73
2023-04-20T12:22:28.524Z,2.70
2023-04-20T12:24:56.992Z,2.80
2023-04-20T12:27:25.542Z,2.97
2023-04-20T12:29:53.845Z,2.80
2023-04-20T12:32:22.063Z,2.70
2023-04-20T12:34:50.297Z,2.73
2023-04-20T12:37:20.117Z,2.50
2023-04-20T12:39:49.616Z,2.43
2023-04-20T12:42:17.764Z,2.60
2023-04-20T12:44:45.974Z,2.47
2023-04-20T12:47:14.473Z,3.10
2023-04-20T12:49:42.661Z,2.60
2023-04-20T12:52:10.802Z,2.63
2023-04-20T12:54:38.996Z,2.70
2023-04-20T12:57:08.716Z,2.77
2023-04-20T12:59:36.879Z,2.33
2023-04-20T13:02:05.172Z,3.00
2023-04-20T13:04:33.415Z,3.17
2023-04-20T13:07:01.608Z,2.83
2023-04-20T13:09:29.761Z,3.20
2023-04-20T13:11:57.945Z,3.50
2023-04-20T13:14:27.506Z,3.47
2023-04-20T13:16:55.901Z,3.60
2023-04-20T13:19:24.261Z,3.47
2023-04-20T13:21:52.434Z,3.23
2023-04-20T13:24:21.026Z,3.20
2023-04-20T13:26:49.280Z,3.30
2023-04-20T13:29:17.806Z,3.40
2023-04-20T13:31:48.350Z,3.53
2023-04-20T13:34:17.188Z,3.90
2023-04-20T13:36:45.770Z,3.57
2023-04-20T13:39:14.373Z,3.63
2023-04-20T13:41:42.536Z,3.80
2023-04-20T13:44:15.831Z,3.83
2023-04-20T13:46:44.733Z,4.17
2023-04-20T13:49:15.434Z,3.83
2023-04-20T13:51:43.629Z,4.30
2023-04-20T13:54:11.792Z,3.97
2023-04-20T13:56:39.996Z,3.87
2023-04-20T13:59:08.204Z,4.23
2023-04-20T14:01:36.733Z,4.40
2023-04-20T14:04:05.063Z,4.47
2023-04-20T14:06:34.752Z,4.80
2023-04-20T14:09:03.019Z,4.30
2023-04-20T14:11:31.275Z,4.57
2023-04-20T14:13:59.455Z,4.80
2023-04-20T14:16:27.755Z,4.93
2023-04-20T14:18:56.022Z,4.37
2023-04-20T14:21:24.168Z,4.80
2023-04-20T14:23:55.468Z,5.03
2023-04-20T14:26:23.694Z,5.00
2023-04-20T14:28:53.086Z,5.33
2023-04-20T14:31:21.322Z,5.20
2023-04-20T14:33:49.528Z,5.17
2023-04-20T14:36:17.701Z,4.73
2023-04-20T14:38:45.861Z,5.23
2023-04-20T14:41:16.663Z,5.10
2023-04-20T14:43:44.841Z,5.33
2023-04-20T14:46:13.046Z,5.20
2023-04-20T14:48:41.253Z,5.43
2023-04-20T14:51:09.403Z,5.40
2023-04-20T14:53:37.574Z,4.70
2023-04-20T14:56:06.013Z,4.37
2023-04-20T14:58:36.027Z,4.40
2023-04-20T15:01:04.209Z,4.47
2023-04-20T15:03:32.602Z,4.33
2023-04-20T15:06:02.012Z,4.03
2023-04-20T15:08:30.369Z,4.07
2023-04-20T15:10:58.553Z,3.93
2023-04-20T15:13:27.059Z,4.23
2023-04-20T15:15:56.590Z,3.80
2023-04-20T15:18:24.788Z,4.30
2023-04-20T15:20:53.346Z,3.93
2023-04-20T15:23:21.530Z,3.70
2023-04-20T15:25:49.804Z,3.90
2023-04-20T15:28:17.964Z,4.33
2023-04-20T15:30:46.592Z,4.03
2023-04-20T15:33:16.158Z,3.77
2023-04-20T15:35:44.417Z,4.07
2023-04-20T15:38:12.574Z,4.03
2023-04-20T15:40:41.380Z,4.10
2023-04-20T15:43:09.534Z,4.37
2023-04-20T15:45:37.732Z,4.23
2023-04-20T15:48:06.251Z,4.50
2023-04-20T15:50:36.404Z,4.40
2023-04-20T15:53:04.605Z,3.80
2023-04-20T15:55:34.532Z,3.63
2023-04-20T15:58:02.867Z,4.50
2023-04-20T16:00:31.331Z,4.40
2023-04-20T16:03:01.402Z,4.57
2023-04-20T16:05:29.965Z,4.50
2023-04-20T16:07:59.521Z,3.83
2023-04-20T16:10:28.081Z,3.50
2023-04-20T16:12:56.307Z,3.47
2023-04-20T16:15:24.692Z,3.97
2023-04-20T16:17:52.896Z,4.40
2023-04-20T16:20:21.230Z,4.10
2023-04-20T16:22:49.411Z,4.47
2023-04-20T16:25:23.069Z,4.07
2023-04-20T16:27:51.592Z,4.07
2023-04-20T16:30:19.907Z,3.90
2023-04-20T16:32:48.172Z,4.43
2023-04-20T16:35:16.387Z,4.10
2023-04-20T16:37:44.615Z,4.37
2023-04-20T16:40:13.010Z,4.20
2023-04-20T16:42:42.532Z,4.43
2023-04-20T16:45:10.753Z,4.20
2023-04-20T16:47:38.958Z,4.50
2023-04-20T16:50:07.766Z,4.47
2023-04-20T16:52:36.208Z,4.30
2023-04-20T16:55:04.379Z,4.63
2023-04-20T16:57:32.586Z,4.07
2023-04-20T17:00:02.113Z,4.30
2023-04-20T17:02:33.040Z,4.27
2023-04-20T17:05:01.509Z,4.07
2023-04-20T17:07:29.868Z,3.90
2023-04-20T17:09:58.033Z,4.13
2023-04-20T17:12:26.337Z,4.00
2023-04-20T17:14:54.524Z,4.10
2023-04-20T17:17:25.109Z,3.93
2023-04-20T17:19:53.344Z,4.27
2023-04-20T17:22:21.595Z,4.80
2023-04-20T17:24:49.816Z,3.90
2023-04-20T17:27:17.977Z,3.97
2023-04-20T17:29:46.126Z,4.07
2023-04-20T17:32:14.421Z,3.90
2023-04-20T17:34:48.189Z,4.27
2023-04-20T17:37:16.454Z,4.20
2023-04-20T17:39:44.679Z,4.13
2023-04-20T17:42:13.465Z,4.20
2023-04-20T17:44:41.642Z,4.37
2023-04-20T17:47:10.412Z,4.03
2023-04-20T17:49:41.145Z,4.10
2023-04-20T17:52:14.779Z,4.80
2023-04-20T17:54:42.952Z,4.40
2023-04-20T17:57:11.433Z,4.37
2023-04-20T17:59:41.286Z,3.97
2023-04-20T18:02:09.919Z,4.10
2023-04-20T18:04:38.899Z,4.17
2023-04-20T18:07:07.454Z,4.87
2023-04-20T18:09:37.003Z,4.63
2023-04-20T18:12:07.706Z,3.90
2023-04-20T18:14:36.082Z,4.00
2023-04-20T18:17:04.275Z,4.37
2023-04-20T18:19:33.088Z,4.03
2023-04-20T18:22:01.336Z,3.83
2023-04-20T18:24:29.499Z,4.13
2023-04-20T18:26:59.026Z,3.70
2023-04-20T18:29:28.856Z,4.10
2023-04-20T18:31:59.218Z,4.20
2023-04-20T18:34:30.076Z,4.93
2023-04-20T18:36:58.424Z,4.40
2023-04-20T18:39:26.800Z,4.43
2023-04-20T18:41:54.971Z,4.43
2023-04-20T18:44:24.514Z,4.97
2023-04-20T18:46:52.773Z,5.20
2023-04-20T18:49:20.993Z,4.93
2023-04-20T18:51:49.188Z,4.67
2023-04-20T18:54:17.586Z,4.67
2023-04-20T18:56:45.943Z,4.57
2023-04-20T18:59:14.122Z,4.60
2023-04-20T19:01:43.719Z,5.00
2023-04-20T19:04:12.105Z,4.97
2023-04-20T19:06:40.395Z,4.90
2023-04-20T19:09:09.064Z,4.87
2023-04-20T19:11:37.245Z,4.70
2023-04-20T19:14:05.424Z,5.20
2023-04-20T19:16:34.057Z,5.13
2023-04-20T19:19:03.967Z,5.50
2023-04-20T19:21:33.096Z,5.53
2023-04-20T19:24:01.294Z,5.60
2023-04-20T19:26:29.514Z,5.20
2023-04-20T19:28:58.582Z,6.33
2023-04-20T19:31:32.130Z,5.53
2023-04-20T19:34:00.416Z,6.10
2023-04-20T19:36:29.926Z,5.37
2023-04-20T19:38:58.087Z,6.03
2023-04-20T19:41:26.833Z,6.23
2023-04-20T19:43:55.003Z,6.50
2023-04-20T19:46:23.200Z,6.47
2023-04-20T19:48:51.395Z,6.57
2023-04-20T19:51:19.902Z,7.00
2023-04-20T19:53:49.427Z,6.50
2023-04-20T19:56:17.933Z,6.20
2023-04-20T19:58:46.102Z,6.33
2023-04-20T20:01:14.296Z,7.07
2023-04-20T20:03:43.362Z,6.27
2023-04-20T20:06:11.769Z,6.60
2023-04-20T20:08:40.389Z,6.93
2023-04-20T20:11:10.035Z,6.20
2023-04-20T20:13:38.360Z,6.87
2023-04-20T20:16:07.251Z,7.10
2023-04-20T20:18:38.019Z,6.87
2023-04-20T20:21:06.881Z,6.97
2023-04-20T20:23:35.120Z,7.27
2023-04-20T20:26:03.624Z,7.33
2023-04-20T20:28:34.928Z,7.70
2023-04-20T20:31:03.170Z,6.60
2023-04-20T20:33:31.972Z,7.23
2023-04-20T20:36:01.330Z,7.10
2023-04-20T20:38:30.898Z,7.50
2023-04-20T20:40:59.586Z,7.17
2023-04-20T20:43:28.440Z,7.90
2023-04-20T20:45:58.009Z,8.37
2023-04-20T20:48:26.141Z,7.83
2023-04-20T20:50:54.329Z,8.10
2023-04-20T20:53:22.496Z,7.77
2023-04-20T20:55:50.723Z,8.17
2023-04-20T20:58:18.877Z,8.20
2023-04-20T21:00:47.345Z,8.83
2023-04-20T21:03:17.021Z,9.13
2023-04-20T21:05:45.269Z,8.97
2023-04-20T21:08:13.429Z,9.07
2023-04-20T21:10:41.616Z,9.93
2023-04-20T21:13:09.789Z,10.07
2023-04-20T21:15:37.934Z,10.77
2023-04-20T21:18:06.301Z,10.70
2023-04-20T21:20:36.240Z,10.30
2023-04-20T21:23:04.395Z,11.03
2023-04-20T21:25:32.586Z,10.90
2023-04-20T21:28:00.865Z,11.27
2023-04-20T21:30:29.433Z,12.60
2023-04-20T21:32:57.611Z,12.63
2023-04-20T21:35:25.882Z,12.10
2023-04-20T21:37:55.370Z,12.73
2023-04-20T21:40:24.064Z,12.10
2023-04-20T21:42:52.235Z,13.27
2023-04-20T21:45:20.612Z,13.83
2023-04-20T21:47:48.870Z,13.17
2023-04-20T21:50:17.081Z,13.70
2023-04-20T21:52:45.230Z,13.10
2023-04-20T21:55:14.764Z,12.97
2023-04-20T21:57:42.925Z,12.53
2023-04-20T22:00:12.135Z,12.83
2023-04-20T22:02:40.439Z,13.53
2023-04-20T22:05:09.588Z,13.60
2023-04-20T22:07:37.723Z,12.10
2023-04-20T22:10:06.862Z,13.70
2023-04-20T22:12:40.095Z,13.67
2023-04-20T22:15:10.299Z,13.80
2023-04-20T22:17:40.015Z,13.50
2023-04-20T22:20:09.284Z,14.27
2023-04-20T22:22:37.690Z,12.87
2023-04-20T22:25:06.368Z,15.70
2023-04-20T22:27:36.794Z,15.03
2023-04-20T22:30:05.705Z,15.30
2023-04-20T22:32:33.956Z,14.93
2023-04-20T22:35:02.441Z,15.23
2023-04-20T22:37:30.615Z,15.80
2023-04-20T22:39:58.762Z,15.87
2023-04-20T22:42:26.941Z,14.97
2023-04-20T22:44:56.534Z,15.87
2023-04-20T22:47:24.750Z,15.07
2023-04-20T22:49:53.527Z,15.97
2023-04-20T22:52:22.180Z,15.60
2023-04-20T22:54:50.349Z,16.57
2023-04-20T22:57:19.081Z,16.50
2023-04-20T22:59:48.663Z,16.73
2023-04-20T23:02:18.317Z,16.60
2023-04-20T23:04:46.563Z,17.23
2023-04-20T23:07:14.740Z,16.73
2023-04-20T23:09:43.967Z,16.43
2023-04-20T23:12:12.216Z,16.63
2023-04-20T23:14:42.607Z,17.73
2023-04-20T23:17:10.946Z,16.23
2023-04-20T23:19:41.055Z,16.50
2023-04-20T23:22:09.661Z,15.90
2023-04-20T23:24:37.855Z,16.83
2023-04-20T23:27:06.174Z,16.30
2023-04-20T23:29:34.342Z,16.30
2023-04-20T23:32:02.841Z,17.37
2023-04-20T23:34:31.141Z,17.00
2023-04-20T23:37:00.744Z,15.73
2023-04-20T23:39:28.951Z,16.00
2023-04-20T23:41:57.795Z,16.27
2023-04-20T23:44:26.048Z,17.00
2023-04-20T23:46:54.265Z,17.17
2023-04-20T23:49:22.452Z,17.27
2023-04-20T23:51:50.705Z,15.97
2023-04-20T23:54:20.207Z,16.90
2023-04-20T23:56:48.376Z,15.90
2023-04-20T23:59:16.816Z,16.73
